Terminal Aerodrome Forecast
Issued by NWS

Home | Current Version | Previous Version | Text Only | Print | Product List | Glossary On
Versions: 1 2 3 4 5 6 7 8 9 10 11 12 13 14 15 16 17 18 19 20
223
FTUS43 KJKL 171141
TAFSME
TAF
KSME 171141Z 1712/1812 20008KT 6SM -SHRA BR OVC030 WS020/21040KT
     FM171500 21009G15KT P6SM -SHRA OVC015
     FM171800 23011G23KT P6SM VCSH OVC010
     FM180000 26006KT P6SM VCSH OVC020
     FM180600 VRB03KT 3SM BR OVC015=

USA.gov is the U.S. government's official web portal to all federal, state and local government web resources and services.